createdAt,value
2018-09-29T00:00:02.614Z,6
2018-09-29T00:01:02.483Z,5.83
2018-09-29T00:02:02.900Z,5.83
2018-09-29T00:03:02.844Z,5.84
2018-09-29T00:04:02.606Z,5.82
2018-09-29T00:05:02.577Z,5.86
2018-09-29T00:06:02.587Z,5.89
2018-09-29T00:07:02.728Z,5.87
2018-09-29T00:08:02.882Z,5.91
2018-09-29T00:09:02.552Z,5.89
2018-09-29T00:10:02.884Z,5.91
2018-09-29T00:11:02.487Z,5.95
2018-09-29T00:12:02.491Z,5.87
2018-09-29T00:13:02.464Z,5.9
2018-09-29T00:14:02.551Z,5.93
2018-09-29T00:15:03.304Z,5.93
2018-09-29T00:16:02.510Z,5.92
2018-09-29T00:17:02.583Z,5.89
2018-09-29T00:18:02.584Z,5.89
2018-09-29T00:19:02.506Z,5.93
2018-09-29T00:20:02.456Z,5.95
2018-09-29T00:21:02.439Z,5.95
2018-09-29T00:22:02.450Z,5.89
2018-09-29T00:23:02.421Z,5.93
2018-09-29T00:24:02.536Z,5.92
2018-09-29T00:25:02.896Z,5.82
2018-09-29T00:26:02.489Z,5.87
2018-09-29T00:27:02.590Z,5.87
2018-09-29T00:28:02.522Z,5.84
2018-09-29T00:29:02.620Z,5.84
2018-09-29T00:30:02.442Z,5.86
2018-09-29T00:31:02.506Z,5.84
2018-09-29T00:32:02.559Z,5.89
2018-09-29T00:33:02.457Z,5.96
2018-09-29T00:34:02.866Z,6.04
2018-09-29T00:35:02.458Z,6.07
2018-09-29T00:36:02.424Z,6.09
2018-09-29T00:37:02.431Z,6.08
2018-09-29T00:38:02.559Z,6.09
2018-09-29T00:39:02.420Z,6.1
2018-09-29T00:40:02.475Z,6.14
2018-09-29T00:41:02.694Z,6.18
2018-09-29T00:42:02.415Z,6.18
2018-09-29T00:43:02.414Z,6.21
2018-09-29T00:44:02.413Z,6.21
2018-09-29T00:45:02.685Z,6.22
2018-09-29T00:46:02.410Z,6.3
2018-09-29T00:47:02.581Z,6.31
2018-09-29T00:48:02.597Z,6.29
2018-09-29T00:49:02.457Z,6.29
2018-09-29T00:50:02.473Z,6.31
2018-09-29T00:51:02.532Z,6.3
2018-09-29T00:52:02.689Z,6.32
2018-09-29T00:53:02.404Z,6.35
2018-09-29T00:54:02.378Z,6.35
2018-09-29T00:55:02.458Z,6.36
2018-09-29T00:56:02.438Z,6.34
2018-09-29T00:57:02.500Z,6.37
2018-09-29T00:58:02.417Z,6.32
2018-09-29T00:59:02.487Z,6.36
2018-09-29T01:00:02.375Z,6.36
2018-09-29T01:01:02.552Z,6.37
2018-09-29T01:02:02.439Z,6.37
2018-09-29T01:03:02.516Z,6.33
2018-09-29T01:04:02.816Z,6.35
2018-09-29T01:05:02.629Z,6.38
2018-09-29T01:06:02.449Z,6.36
2018-09-29T01:07:02.411Z,6.45
2018-09-29T01:08:02.359Z,6.34
2018-09-29T01:09:02.381Z,6.34
2018-09-29T01:10:02.399Z,6.38
2018-09-29T01:11:02.376Z,6.32
2018-09-29T01:12:02.379Z,6.34
2018-09-29T01:13:02.381Z,6.34
2018-09-29T01:14:02.382Z,6.34
2018-09-29T01:15:02.352Z,6.35
2018-09-29T01:16:02.373Z,6.36
2018-09-29T01:17:02.475Z,6.35
2018-09-29T01:18:02.641Z,6.37
2018-09-29T01:19:02.389Z,6.36
2018-09-29T01:20:02.385Z,6.4
2018-09-29T01:21:02.359Z,6.4
2018-09-29T01:22:02.357Z,6.41
2018-09-29T01:23:02.374Z,6.4
2018-09-29T01:24:02.354Z,6.38
2018-09-29T01:25:02.346Z,6.29
2018-09-29T01:26:02.334Z,6.28
2018-09-29T01:27:02.339Z,6.32
2018-09-29T01:28:02.381Z,6.35
2018-09-29T01:29:02.386Z,6.35
2018-09-29T01:30:02.400Z,6.32
2018-09-29T01:31:02.483Z,6.34
2018-09-29T01:32:02.589Z,6.37
2018-09-29T01:33:02.545Z,6.37
2018-09-29T01:34:02.503Z,6.36
2018-09-29T01:35:02.475Z,6.38
2018-09-29T01:36:02.465Z,6.38
2018-09-29T01:37:02.312Z,6.36
2018-09-29T01:38:02.858Z,6.37
2018-09-29T01:39:02.378Z,6.35
2018-09-29T01:40:02.405Z,6.34
2018-09-29T01:41:02.418Z,6.37
2018-09-29T01:42:02.550Z,6.38
2018-09-29T01:43:02.313Z,6.37
2018-09-29T01:44:02.321Z,6.36
2018-09-29T01:45:02.471Z,6.35
2018-09-29T01:46:02.372Z,6.36
2018-09-29T01:47:02.328Z,6.36
2018-09-29T01:48:02.412Z,6.34
2018-09-29T01:49:02.767Z,6.34
2018-09-29T01:50:02.487Z,6.34
2018-09-29T01:51:02.621Z,6.36
2018-09-29T01:52:02.311Z,6.31
2018-09-29T01:53:02.736Z,6.33
2018-09-29T01:54:02.377Z,6.34
2018-09-29T01:55:02.538Z,6.32
2018-09-29T01:56:02.542Z,6.29
2018-09-29T01:57:02.585Z,6.33
2018-09-29T01:58:02.477Z,6.21
2018-09-29T01:59:02.341Z,6.28
2018-09-29T02:00:02.425Z,6.29
2018-09-29T02:01:02.417Z,6.34
2018-09-29T02:02:02.387Z,6.33
2018-09-29T02:03:02.484Z,6.32
2018-09-29T02:04:02.336Z,6.35
2018-09-29T02:05:02.419Z,6.34
2018-09-29T02:06:02.301Z,6.38
2018-09-29T02:07:02.513Z,6.36
2018-09-29T02:08:03.144Z,6.38
2018-09-29T02:09:02.323Z,6.39
2018-09-29T02:10:02.458Z,6.39
2018-09-29T02:11:02.388Z,6.39
2018-09-29T02:12:02.385Z,6.38
2018-09-29T02:13:02.302Z,6.33
2018-09-29T02:14:02.372Z,6.37
2018-09-29T02:15:02.631Z,6.32
2018-09-29T02:16:02.410Z,6.34
2018-09-29T02:17:02.376Z,6.32
2018-09-29T02:18:02.265Z,6.31
2018-09-29T02:19:02.713Z,6.28
2018-09-29T02:20:02.279Z,6.3
2018-09-29T02:21:02.727Z,6.28
2018-09-29T02:22:02.347Z,6.32
2018-09-29T02:23:02.249Z,6.33
2018-09-29T02:24:02.276Z,6.35
2018-09-29T02:25:02.437Z,6.34
2018-09-29T02:26:02.264Z,6.35
2018-09-29T02:27:02.294Z,6.18
2018-09-29T02:28:02.392Z,6.24
2018-09-29T02:29:03.031Z,6.26
2018-09-29T02:30:02.338Z,6.22
2018-09-29T02:31:02.254Z,6.15
2018-09-29T02:32:02.256Z,6.05
2018-09-29T02:33:02.493Z,6.11
2018-09-29T02:34:02.243Z,6.12
2018-09-29T02:35:02.298Z,6.13
2018-09-29T02:36:02.246Z,6.16
2018-09-29T02:37:02.372Z,6.11
2018-09-29T02:38:02.259Z,6.13
2018-09-29T02:39:02.222Z,6.13
2018-09-29T02:40:02.233Z,6.11
2018-09-29T02:41:02.231Z,6.09
2018-09-29T02:42:02.204Z,6.1
2018-09-29T02:43:04.671Z,6.1
2018-09-29T02:44:02.280Z,6.12
2018-09-29T02:45:02.252Z,6.05
2018-09-29T02:46:02.228Z,6.08
2018-09-29T02:47:02.247Z,6.12
2018-09-29T02:48:02.297Z,6.08
2018-09-29T02:49:02.605Z,6.11
2018-09-29T02:50:02.377Z,6.12
2018-09-29T02:51:02.328Z,6.11
2018-09-29T02:52:02.308Z,6.07
2018-09-29T02:53:02.262Z,6.09
2018-09-29T02:54:02.234Z,6.08
2018-09-29T02:55:02.511Z,6.06
2018-09-29T02:56:02.387Z,5.99
2018-09-29T02:57:02.244Z,6
2018-09-29T02:58:02.202Z,6.04
2018-09-29T02:59:02.193Z,6.02
2018-09-29T03:00:02.235Z,6
2018-09-29T03:01:02.251Z,6
2018-09-29T03:02:02.211Z,6.02
2018-09-29T03:03:02.282Z,6.04
2018-09-29T03:04:02.413Z,6.05
2018-09-29T03:05:02.757Z,6.05
2018-09-29T03:06:02.433Z,6.07
2018-09-29T03:07:02.520Z,6.04
2018-09-29T03:08:02.641Z,6
2018-09-29T03:09:02.467Z,6.01
2018-09-29T03:10:02.176Z,6
2018-09-29T03:11:02.243Z,6.02
2018-09-29T03:12:02.196Z,5.99
2018-09-29T03:13:02.157Z,5.97
2018-09-29T03:14:02.296Z,5.97
2018-09-29T03:15:02.332Z,5.97
2018-09-29T03:16:02.166Z,5.92
2018-09-29T03:17:02.307Z,5.95
2018-09-29T03:18:02.262Z,5.95
2018-09-29T03:19:02.645Z,5.89
2018-09-29T03:20:02.452Z,5.9
2018-09-29T03:21:02.238Z,5.92
2018-09-29T03:22:02.189Z,5.91
2018-09-29T03:23:02.687Z,5.92
2018-09-29T03:24:02.177Z,5.94
2018-09-29T03:25:02.296Z,5.92
2018-09-29T03:26:02.591Z,5.87
2018-09-29T03:27:02.460Z,5.88
2018-09-29T03:28:02.265Z,5.84
2018-09-29T03:29:02.465Z,5.85
2018-09-29T03:30:02.220Z,5.86
2018-09-29T03:31:02.201Z,5.88
2018-09-29T03:32:02.261Z,5.9
2018-09-29T03:33:02.196Z,5.87
2018-09-29T03:34:02.409Z,5.87
2018-09-29T03:35:02.191Z,5.85
2018-09-29T03:36:02.328Z,5.86
2018-09-29T03:37:02.725Z,5.87
2018-09-29T03:38:02.206Z,5.84
2018-09-29T03:39:02.281Z,5.88
2018-09-29T03:40:02.220Z,5.87
2018-09-29T03:41:02.203Z,5.9
2018-09-29T03:42:02.238Z,5.87
2018-09-29T03:43:02.382Z,5.9
2018-09-29T03:44:02.715Z,5.92
2018-09-29T03:45:02.261Z,5.94
2018-09-29T03:46:02.187Z,5.93
2018-09-29T03:47:02.183Z,5.9
2018-09-29T03:48:02.496Z,5.91
2018-09-29T03:49:02.428Z,5.87
2018-09-29T03:50:02.294Z,5.87
2018-09-29T03:51:02.547Z,5.86
2018-09-29T03:52:02.142Z,5.87
2018-09-29T03:53:02.198Z,5.89
2018-09-29T03:54:02.202Z,5.89
2018-09-29T03:55:02.224Z,5.92
2018-09-29T03:56:02.156Z,5.91
2018-09-29T03:57:02.161Z,5.91
2018-09-29T03:58:02.147Z,5.91
2018-09-29T03:59:02.187Z,5.87
2018-09-29T04:00:02.172Z,5.88
2018-09-29T04:01:02.153Z,5.89
2018-09-29T04:02:02.193Z,5.92
2018-09-29T04:03:02.140Z,5.9
2018-09-29T04:04:02.140Z,5.89
2018-09-29T04:05:02.192Z,5.88
2018-09-29T04:06:02.201Z,5.91
2018-09-29T04:07:02.149Z,5.91
2018-09-29T04:08:02.123Z,5.93
2018-09-29T04:09:02.174Z,5.94
2018-09-29T04:10:02.269Z,5.96
2018-09-29T04:11:02.145Z,5.93
2018-09-29T04:12:02.132Z,5.95
2018-09-29T04:13:02.177Z,5.94
2018-09-29T04:14:02.521Z,5.94
2018-09-29T04:15:02.398Z,5.97
2018-09-29T04:16:02.102Z,5.98
2018-09-29T04:17:02.182Z,5.98
2018-09-29T04:18:02.307Z,5.96
2018-09-29T04:19:02.073Z,5.92
2018-09-29T04:20:02.440Z,5.95
2018-09-29T04:21:02.121Z,5.93
2018-09-29T04:22:02.129Z,5.94
2018-09-29T04:23:02.337Z,5.87
2018-09-29T04:24:02.142Z,5.87
2018-09-29T04:25:02.478Z,5.91
2018-09-29T04:26:02.235Z,5.92
2018-09-29T04:27:02.210Z,5.9
2018-09-29T04:28:02.210Z,5.91
2018-09-29T04:29:02.155Z,5.93
2018-09-29T04:30:02.174Z,5.89
2018-09-29T04:31:02.128Z,5.9
2018-09-29T04:32:02.850Z,5.89
2018-09-29T04:33:02.309Z,5.9
2018-09-29T04:34:02.309Z,5.92
2018-09-29T04:35:02.231Z,5.93
2018-09-29T04:36:02.199Z,5.93
2018-09-29T04:37:02.114Z,5.91
2018-09-29T04:38:02.087Z,5.94
2018-09-29T04:39:02.129Z,5.92
2018-09-29T04:40:02.368Z,5.9
2018-09-29T04:41:02.307Z,5.91
2018-09-29T04:42:02.178Z,5.92
2018-09-29T04:43:02.681Z,5.91
2018-09-29T04:44:02.175Z,5.88
2018-09-29T04:45:02.300Z,5.89
2018-09-29T04:46:02.104Z,5.89
2018-09-29T04:47:02.163Z,5.88
2018-09-29T04:48:02.042Z,5.88
2018-09-29T04:49:02.504Z,5.88
2018-09-29T04:50:02.167Z,5.83
2018-09-29T04:51:02.183Z,5.87
2018-09-29T04:52:02.065Z,5.86
2018-09-29T04:53:02.124Z,5.88
2018-09-29T04:54:02.262Z,5.91
2018-09-29T04:55:02.240Z,5.9
2018-09-29T04:56:02.081Z,5.91
2018-09-29T04:57:02.216Z,5.96
2018-09-29T04:58:02.233Z,5.89
2018-09-29T04:59:02.137Z,5.88
2018-09-29T05:00:02.248Z,5.84
2018-09-29T05:01:02.221Z,5.84
2018-09-29T05:02:02.190Z,5.84
2018-09-29T05:03:02.122Z,5.84
2018-09-29T05:04:02.275Z,5.87
2018-09-29T05:05:02.139Z,5.89
2018-09-29T05:06:02.390Z,5.86
2018-09-29T05:07:02.120Z,5.79
2018-09-29T05:08:02.089Z,5.82
2018-09-29T05:09:02.208Z,5.84
2018-09-29T05:10:02.081Z,5.86
2018-09-29T05:11:02.117Z,5.87
2018-09-29T05:12:02.061Z,5.86
2018-09-29T05:13:02.104Z,5.92
2018-09-29T05:14:02.720Z,5.89
2018-09-29T05:15:02.149Z,5.93
2018-09-29T05:16:02.080Z,5.95
2018-09-29T05:17:02.081Z,5.93
2018-09-29T05:18:02.102Z,5.93
2018-09-29T05:19:02.042Z,5.92
2018-09-29T05:20:02.198Z,5.93
2018-09-29T05:21:02.095Z,5.97
2018-09-29T05:22:02.026Z,5.94
2018-09-29T05:23:02.271Z,6
2018-09-29T05:24:02.070Z,5.96
2018-09-29T05:25:02.093Z,5.95
2018-09-29T05:26:02.029Z,5.98
2018-09-29T05:27:02.192Z,5.94
2018-09-29T05:28:02.076Z,5.94
2018-09-29T05:29:02.310Z,5.96
2018-09-29T05:30:02.072Z,5.97
2018-09-29T05:31:02.595Z,6.01
2018-09-29T05:32:02.059Z,6.02
2018-09-29T05:33:02.034Z,5.99
2018-09-29T05:34:02.077Z,5.97
2018-09-29T05:35:02.014Z,5.99
2018-09-29T05:36:02.357Z,5.99
2018-09-29T05:37:02.399Z,5.98
2018-09-29T05:38:02.121Z,5.96
2018-09-29T05:39:02.384Z,5.97
2018-09-29T05:40:02.296Z,5.97
2018-09-29T05:41:02.394Z,5.97
2018-09-29T05:42:02.021Z,5.98
2018-09-29T05:43:01.979Z,5.99
2018-09-29T05:44:02.273Z,5.97
2018-09-29T05:45:02.405Z,5.98
2018-09-29T05:46:02.055Z,5.98
2018-09-29T05:47:02.224Z,5.99
2018-09-29T05:48:02.028Z,5.9
2018-09-29T05:49:02.085Z,5.9
2018-09-29T05:50:02.104Z,5.92
2018-09-29T05:51:02.146Z,5.98
2018-09-29T05:52:01.977Z,5.97
2018-09-29T05:53:02.246Z,6
2018-09-29T05:54:02.837Z,5.98
2018-09-29T05:55:02.050Z,5.96
2018-09-29T05:56:02.103Z,5.98
2018-09-29T05:57:01.976Z,5.97
2018-09-29T05:58:02.231Z,5.96
2018-09-29T05:59:02.052Z,5.98
2018-09-29T06:00:02.392Z,6.01
2018-09-29T06:01:02.200Z,5.97
2018-09-29T06:02:02.068Z,5.98
2018-09-29T06:03:02.378Z,6
2018-09-29T06:04:02.232Z,6
2018-09-29T06:05:02.821Z,6.02
2018-09-29T06:06:02.250Z,6.03
2018-09-29T06:07:02.630Z,6.06
2018-09-29T06:08:02.280Z,6.02
2018-09-29T06:09:02.109Z,6.05
2018-09-29T06:10:02.337Z,6.02
2018-09-29T06:11:02.095Z,6.02
2018-09-29T06:12:02.109Z,5.95
2018-09-29T06:13:02.473Z,5.98
2018-09-29T06:14:02.098Z,5.98
2018-09-29T06:15:01.953Z,5.86
2018-09-29T06:16:02.167Z,5.89
2018-09-29T06:17:02.313Z,5.89
2018-09-29T06:18:01.951Z,5.89
2018-09-29T06:19:02.154Z,5.86
2018-09-29T06:20:02.316Z,5.87
2018-09-29T06:21:02.931Z,5.86
2018-09-29T06:22:02.192Z,5.88
2018-09-29T06:23:02.042Z,5.89
2018-09-29T06:24:02.237Z,5.87
2018-09-29T06:25:01.966Z,5.83
2018-09-29T06:26:02.169Z,5.85
2018-09-29T06:27:02.174Z,5.84
2018-09-29T06:28:02.577Z,5.88
2018-09-29T06:29:02.218Z,5.87
2018-09-29T06:30:02.147Z,5.87
2018-09-29T06:31:02.134Z,5.88
2018-09-29T06:32:02.311Z,5.93
2018-09-29T06:33:01.982Z,5.91
2018-09-29T06:34:02.184Z,5.93
2018-09-29T06:35:01.990Z,5.93
2018-09-29T06:36:02.253Z,5.87
2018-09-29T06:37:02.177Z,5.86
2018-09-29T06:38:01.901Z,5.88
2018-09-29T06:39:02.326Z,5.89
2018-09-29T06:40:01.916Z,5.93
2018-09-29T06:41:02.110Z,5.95
2018-09-29T06:42:01.912Z,5.99
2018-09-29T06:43:02.287Z,5.94
2018-09-29T06:44:01.897Z,5.91
2018-09-29T06:45:01.916Z,5.91
2018-09-29T06:46:01.893Z,5.94
2018-09-29T06:47:01.906Z,5.9
2018-09-29T06:48:02.185Z,5.9
2018-09-29T06:49:01.864Z,5.97
2018-09-29T06:50:01.941Z,5.96
2018-09-29T06:51:02.075Z,5.96
2018-09-29T06:52:01.899Z,5.96
2018-09-29T06:53:01.875Z,5.91
2018-09-29T06:54:02.160Z,5.9
2018-09-29T06:55:01.950Z,5.94
2018-09-29T06:56:01.901Z,5.94
2018-09-29T06:57:01.875Z,5.97
2018-09-29T06:58:05.309Z,6
2018-09-29T06:59:02.160Z,6
2018-09-29T07:00:01.859Z,5.92
2018-09-29T07:01:02.017Z,5.89
2018-09-29T07:02:01.875Z,5.89
2018-09-29T07:03:02.406Z,5.89
2018-09-29T07:04:02.042Z,5.93
2018-09-29T07:05:02.397Z,5.93
2018-09-29T07:06:01.934Z,5.94
2018-09-29T07:07:01.916Z,5.9
2018-09-29T07:08:02.021Z,5.88
2018-09-29T07:09:01.882Z,5.91
2018-09-29T07:10:01.850Z,5.89
2018-09-29T07:11:01.972Z,5.92
2018-09-29T07:12:01.897Z,5.9
2018-09-29T07:13:02.710Z,5.93
2018-09-29T07:14:02.013Z,5.9
2018-09-29T07:15:01.910Z,5.92
2018-09-29T07:16:01.952Z,5.96
2018-09-29T07:17:01.835Z,5.93
2018-09-29T07:18:01.921Z,5.93
2018-09-29T07:19:01.955Z,5.93
2018-09-29T07:20:01.972Z,5.88
2018-09-29T07:21:01.860Z,5.91
2018-09-29T07:22:02.170Z,5.9
2018-09-29T07:23:01.845Z,5.88
2018-09-29T07:24:01.861Z,5.9
2018-09-29T07:25:02.043Z,5.9
2018-09-29T07:26:02.087Z,5.91
2018-09-29T07:27:01.902Z,5.97
2018-09-29T07:28:01.852Z,5.96
2018-09-29T07:29:02.101Z,5.97
2018-09-29T07:30:01.919Z,5.99
2018-09-29T07:31:02.106Z,5.96
2018-09-29T07:32:01.936Z,5.95
2018-09-29T07:33:03.453Z,5.95
2018-09-29T07:34:03.147Z,6
2018-09-29T07:35:01.837Z,5.99
2018-09-29T07:36:06.206Z,5.99
2018-09-29T07:37:02.072Z,6
2018-09-29T07:38:01.823Z,5.97
2018-09-29T07:39:02.398Z,5.98
2018-09-29T07:40:01.872Z,5.98
2018-09-29T07:41:02.093Z,5.97
2018-09-29T07:42:01.994Z,5.94
2018-09-29T07:43:01.899Z,5.98
2018-09-29T07:44:02.201Z,6.02
2018-09-29T07:45:02.079Z,6
2018-09-29T07:46:01.869Z,5.99
2018-09-29T07:47:01.821Z,6.04
2018-09-29T07:48:01.798Z,6.03
2018-09-29T07:49:02.319Z,6.08
2018-09-29T07:50:01.845Z,6.09
2018-09-29T07:51:01.820Z,6.03
2018-09-29T07:52:01.822Z,6.02
2018-09-29T07:53:01.794Z,6.07
2018-09-29T07:54:02.028Z,6.06
2018-09-29T07:55:02.115Z,6.05
2018-09-29T07:56:02.170Z,6.05
2018-09-29T07:57:01.822Z,6.07
2018-09-29T07:58:01.984Z,6.09
2018-09-29T07:59:01.828Z,6.05
2018-09-29T08:00:02.038Z,6.06
2018-09-29T08:01:01.993Z,5.95
2018-09-29T08:02:01.836Z,5.94
2018-09-29T08:03:01.795Z,5.9
2018-09-29T08:04:01.781Z,5.93
2018-09-29T08:05:01.746Z,5.91
2018-09-29T08:06:01.753Z,5.91
2018-09-29T08:07:01.790Z,5.91
2018-09-29T08:08:01.790Z,5.9
2018-09-29T08:09:01.824Z,5.88
2018-09-29T08:10:01.809Z,5.85
2018-09-29T08:11:01.782Z,5.78
2018-09-29T08:12:01.837Z,5.84
2018-09-29T08:13:01.751Z,5.84
2018-09-29T08:14:01.756Z,5.85
2018-09-29T08:15:01.754Z,5.81
2018-09-29T08:16:01.773Z,5.77
2018-09-29T08:17:01.779Z,5.78
2018-09-29T08:18:01.770Z,5.78
2018-09-29T08:19:01.759Z,5.83
2018-09-29T08:20:01.841Z,5.81
2018-09-29T08:21:01.754Z,5.84
2018-09-29T08:22:01.748Z,5.8
2018-09-29T08:23:01.755Z,5.86
2018-09-29T08:24:02.260Z,5.83
2018-09-29T08:25:01.763Z,5.8
2018-09-29T08:26:01.786Z,5.87
2018-09-29T08:27:02.171Z,5.87
2018-09-29T08:28:01.723Z,5.86
2018-09-29T08:29:01.723Z,5.8
2018-09-29T08:30:01.757Z,5.82
2018-09-29T08:31:01.954Z,5.83
2018-09-29T08:32:01.877Z,5.89
2018-09-29T08:33:02.030Z,5.87
2018-09-29T08:34:01.842Z,5.82
2018-09-29T08:35:01.741Z,5.82
2018-09-29T08:36:01.810Z,5.77
2018-09-29T08:37:01.886Z,5.79
2018-09-29T08:38:01.820Z,5.78
2018-09-29T08:39:01.738Z,5.76
2018-09-29T08:40:01.738Z,5.74
2018-09-29T08:41:01.883Z,5.78
2018-09-29T08:42:01.736Z,5.78
2018-09-29T08:43:01.755Z,5.69
2018-09-29T08:44:01.802Z,5.66
2018-09-29T08:45:02.073Z,5.74
2018-09-29T08:46:01.856Z,5.74
2018-09-29T08:47:01.741Z,5.73
2018-09-29T08:48:01.733Z,5.77
2018-09-29T08:49:01.779Z,5.7
2018-09-29T08:50:01.914Z,5.72
2018-09-29T08:51:02.119Z,5.69
2018-09-29T08:52:02.106Z,5.76
2018-09-29T08:53:02.032Z,5.77
2018-09-29T08:54:01.815Z,5.82
2018-09-29T08:55:01.914Z,5.9
2018-09-29T08:56:02.374Z,5.85
2018-09-29T08:57:01.735Z,5.75
2018-09-29T08:58:01.801Z,5.81
2018-09-29T08:59:01.857Z,5.84
2018-09-29T09:00:01.816Z,5.72
2018-09-29T09:01:01.719Z,5.72
2018-09-29T09:02:01.846Z,5.74
2018-09-29T09:03:01.843Z,5.67
2018-09-29T09:04:02.650Z,5.7
2018-09-29T09:05:01.673Z,5.67
2018-09-29T09:06:01.754Z,5.71
2018-09-29T09:07:01.663Z,5.7
2018-09-29T09:08:01.707Z,5.79
2018-09-29T09:09:01.751Z,5.8
2018-09-29T09:10:01.786Z,5.78
2018-09-29T09:11:02.015Z,5.82
2018-09-29T09:12:01.703Z,5.68
2018-09-29T09:13:01.726Z,5.59
2018-09-29T09:14:02.058Z,5.56
2018-09-29T09:15:01.800Z,5.57
2018-09-29T09:16:01.821Z,5.65
2018-09-29T09:17:02.773Z,5.65
2018-09-29T09:18:01.719Z,5.57
2018-09-29T09:19:01.670Z,5.52
2018-09-29T09:20:01.676Z,5.57
2018-09-29T09:21:01.828Z,5.58
2018-09-29T09:22:01.746Z,5.47
2018-09-29T09:23:02.077Z,5.46
2018-09-29T09:24:01.868Z,5.5
2018-09-29T09:25:01.793Z,5.5
2018-09-29T09:26:01.653Z,5.47
2018-09-29T09:27:01.778Z,5.44
2018-09-29T09:28:01.891Z,5.45
2018-09-29T09:29:01.768Z,5.48
2018-09-29T09:30:01.907Z,5.49
2018-09-29T09:31:01.666Z,5.47
2018-09-29T09:32:01.799Z,5.45
2018-09-29T09:33:01.706Z,5.48
2018-09-29T09:34:01.666Z,5.53
2018-09-29T09:35:01.698Z,5.57
2018-09-29T09:36:01.661Z,5.55
2018-09-29T09:37:01.750Z,5.54
2018-09-29T09:38:01.704Z,5.47
2018-09-29T09:39:01.717Z,5.47
2018-09-29T09:40:01.690Z,5.35
2018-09-29T09:41:01.698Z,5.36
2018-09-29T09:42:01.695Z,5.27
2018-09-29T09:43:01.714Z,5.32
2018-09-29T09:44:01.640Z,5.33
2018-09-29T09:45:01.675Z,5.38
2018-09-29T09:46:01.621Z,5.37
2018-09-29T09:47:01.702Z,5.39
2018-09-29T09:48:01.701Z,5.33
2018-09-29T09:50:02.043Z,5.36
2018-09-29T09:51:01.737Z,5.25
2018-09-29T09:52:01.643Z,5.36
2018-09-29T09:53:01.651Z,5.46
2018-09-29T09:54:01.705Z,5.45
2018-09-29T09:55:01.754Z,5.45
2018-09-29T09:56:02.189Z,5.47
2018-09-29T09:57:01.666Z,5.47
2018-09-29T09:58:01.714Z,5.44
2018-09-29T09:59:03.256Z,5.47
2018-09-29T10:00:03.901Z,5.44
2018-09-29T10:01:01.613Z,5.4
2018-09-29T10:02:01.627Z,5.4
2018-09-29T10:03:01.908Z,5.36
2018-09-29T10:04:01.703Z,5.32
2018-09-29T10:05:01.664Z,5.41
2018-09-29T10:06:01.706Z,5.3
2018-09-29T10:07:01.624Z,5.32
2018-09-29T10:08:01.847Z,5.39
2018-09-29T10:09:01.721Z,5.36
2018-09-29T10:10:01.680Z,5.37
2018-09-29T10:11:01.679Z,5.46
2018-09-29T10:12:01.648Z,5.44
2018-09-29T10:13:01.720Z,5.44
2018-09-29T10:14:02.258Z,5.35
2018-09-29T10:15:01.624Z,5.29
2018-09-29T10:16:01.676Z,5.36
2018-09-29T10:17:01.748Z,5.31
2018-09-29T10:18:01.650Z,5.21
2018-09-29T10:19:01.627Z,5.37
2018-09-29T10:20:01.803Z,5.24
2018-09-29T10:21:01.622Z,5.23
2018-09-29T10:22:01.676Z,5.22
2018-09-29T10:23:01.760Z,5.23
2018-09-29T10:24:01.639Z,5.18
2018-09-29T10:25:02.703Z,5.12
2018-09-29T10:26:01.876Z,5.17
2018-09-29T10:27:01.702Z,5.2
2018-09-29T10:28:01.624Z,5.27
2018-09-29T10:29:01.654Z,5.3
2018-09-29T10:30:01.614Z,5.29
2018-09-29T10:31:01.638Z,5.15
2018-09-29T10:32:01.775Z,5.01
2018-09-29T10:33:01.685Z,4.91
2018-09-29T10:34:01.697Z,4.89
2018-09-29T10:35:01.791Z,4.93
2018-09-29T10:36:01.581Z,5.02
2018-09-29T10:37:01.605Z,5.11
2018-09-29T10:38:01.603Z,5.06
2018-09-29T10:39:01.750Z,5.02
2018-09-29T10:40:01.881Z,4.96
2018-09-29T10:41:01.758Z,5.03
2018-09-29T10:42:01.577Z,4.86
2018-09-29T10:43:01.762Z,4.98
2018-09-29T10:44:01.906Z,4.92
2018-09-29T10:45:01.690Z,5.03
2018-09-29T10:46:02.010Z,5.09
2018-09-29T10:47:01.686Z,5.04
2018-09-29T10:48:02.040Z,5.09
2018-09-29T10:49:01.627Z,5.05
2018-09-29T10:50:01.794Z,5
2018-09-29T10:51:01.670Z,5.07
2018-09-29T10:52:01.750Z,5.03
2018-09-29T10:53:02.570Z,4.98
2018-09-29T10:54:01.633Z,4.97
2018-09-29T10:55:01.629Z,4.89
2018-09-29T10:56:01.558Z,4.95
2018-09-29T10:57:01.597Z,4.81
2018-09-29T10:58:01.600Z,4.91
2018-09-29T10:59:01.829Z,4.9
2018-09-29T11:00:01.681Z,4.96
2018-09-29T11:01:01.573Z,4.88
2018-09-29T11:02:01.628Z,4.9
2018-09-29T11:03:01.674Z,4.98
2018-09-29T11:04:01.661Z,4.9
2018-09-29T11:05:02.201Z,4.95
2018-09-29T11:06:01.959Z,4.96
2018-09-29T11:07:01.594Z,5.05
2018-09-29T11:08:01.670Z,4.94
2018-09-29T11:09:01.567Z,5.04
2018-09-29T11:10:01.689Z,4.97
2018-09-29T11:11:02.204Z,5
2018-09-29T11:12:01.569Z,4.98
2018-09-29T11:13:01.560Z,5.07
2018-09-29T11:14:01.554Z,5.04
2018-09-29T11:15:01.557Z,5.09
2018-09-29T11:16:01.679Z,5.2
2018-09-29T11:17:01.560Z,5.09
2018-09-29T11:18:01.572Z,5.07
2018-09-29T11:19:01.566Z,5.1
2018-09-29T11:20:01.625Z,5.07
2018-09-29T11:21:02.388Z,5.07
2018-09-29T11:22:01.581Z,5.07
2018-09-29T11:23:01.510Z,5.04
2018-09-29T11:24:01.799Z,4.96
2018-09-29T11:25:01.575Z,5.03
2018-09-29T11:26:01.582Z,5.02
2018-09-29T11:27:01.600Z,5.02
2018-09-29T11:28:01.860Z,5.04
2018-09-29T11:29:01.642Z,5.06
2018-09-29T11:30:01.777Z,4.95
2018-09-29T11:31:01.803Z,5.01
2018-09-29T11:32:01.532Z,4.97
2018-09-29T11:33:01.650Z,4.92
2018-09-29T11:34:01.501Z,4.92
2018-09-29T11:35:01.725Z,5
2018-09-29T11:36:01.671Z,5.05
2018-09-29T11:37:01.614Z,4.96
2018-09-29T11:38:02.113Z,5.02
2018-09-29T11:39:01.659Z,5.03
2018-09-29T11:40:01.561Z,5.03
2018-09-29T11:41:01.792Z,4.95
2018-09-29T11:42:01.670Z,4.97
2018-09-29T11:43:01.865Z,4.89
2018-09-29T11:44:01.617Z,4.78
2018-09-29T11:45:01.581Z,4.83
2018-09-29T11:46:01.660Z,4.89
2018-09-29T11:47:02.481Z,4.85
2018-09-29T11:48:01.540Z,4.85
2018-09-29T11:49:01.652Z,4.95
2018-09-29T11:50:01.660Z,4.94
2018-09-29T11:51:01.553Z,5.01
2018-09-29T11:52:01.714Z,4.85
2018-09-29T11:53:01.878Z,4.93
2018-09-29T11:54:01.607Z,4.93
2018-09-29T11:55:01.835Z,4.94
2018-09-29T11:56:02.133Z,4.93
2018-09-29T11:57:01.555Z,4.9
2018-09-29T11:58:01.547Z,4.87
2018-09-29T11:59:01.508Z,4.89
2018-09-29T12:00:01.495Z,4.88
2018-09-29T12:01:01.626Z,4.78
2018-09-29T12:02:01.898Z,4.8
2018-09-29T12:03:01.604Z,4.87
2018-09-29T12:04:01.650Z,4.89
2018-09-29T12:05:01.685Z,4.83
2018-09-29T12:06:02.930Z,4.78
2018-09-29T12:07:01.862Z,4.8
2018-09-29T12:08:02.244Z,4.86
2018-09-29T12:09:01.508Z,4.94
2018-09-29T12:10:01.952Z,4.86
2018-09-29T12:11:01.478Z,4.89
2018-09-29T12:12:01.543Z,4.93
2018-09-29T12:13:01.515Z,4.93
2018-09-29T12:14:02.129Z,4.9
2018-09-29T12:15:01.476Z,5.05
2018-09-29T12:16:01.427Z,5.03
2018-09-29T12:17:02.582Z,5.04
2018-09-29T12:18:01.549Z,4.9
2018-09-29T12:19:01.592Z,4.9
2018-09-29T12:20:01.655Z,4.79
2018-09-29T12:21:01.909Z,4.77
2018-09-29T12:22:01.508Z,4.88
2018-09-29T12:23:02.613Z,4.91
2018-09-29T12:24:01.662Z,4.9
2018-09-29T12:25:02.474Z,4.83
2018-09-29T12:26:01.676Z,4.79
2018-09-29T12:27:01.682Z,4.7
2018-09-29T12:28:01.989Z,4.66
2018-09-29T12:29:01.779Z,4.74
2018-09-29T12:30:01.542Z,4.74
2018-09-29T12:31:01.787Z,4.78
2018-09-29T12:32:01.921Z,4.83
2018-09-29T12:33:04.052Z,4.84
2018-09-29T12:34:01.497Z,4.85
2018-09-29T12:35:01.632Z,4.86
2018-09-29T12:36:01.624Z,4.83
2018-09-29T12:37:56.709Z,4.77
2018-09-29T12:38:57.054Z,4.78
2018-09-29T12:39:58.106Z,4.73
2018-09-29T12:40:57.095Z,4.72
2018-09-29T12:41:57.063Z,4.76
2018-09-29T12:42:58.116Z,4.74
2018-09-29T12:43:57.886Z,4.79
2018-09-29T12:44:58.053Z,4.66
2018-09-29T12:45:57.085Z,4.72
2018-09-29T12:46:57.100Z,4.82
2018-09-29T12:47:57.016Z,4.78
2018-09-29T12:48:56.871Z,4.76
2018-09-29T12:49:57.031Z,4.8
2018-09-29T12:50:57.031Z,4.81
2018-09-29T12:51:57.541Z,4.75
2018-09-29T12:52:57.278Z,4.57
2018-09-29T12:53:57.248Z,4.68
2018-09-29T12:54:56.934Z,4.65
2018-09-29T12:55:57.073Z,4.75
2018-09-29T12:56:57.156Z,4.8
2018-09-29T12:57:57.196Z,4.69
2018-09-29T12:58:57.708Z,4.82
2018-09-29T12:59:56.939Z,4.82
2018-09-29T13:00:56.908Z,4.79
2018-09-29T13:01:57.321Z,4.81
2018-09-29T13:02:57.325Z,4.76
2018-09-29T13:03:56.933Z,4.72
2018-09-29T13:04:57.057Z,4.79
2018-09-29T13:05:57.074Z,4.72
2018-09-29T13:06:57.128Z,4.79
2018-09-29T13:07:56.986Z,4.79
2018-09-29T13:08:57.038Z,4.79
2018-09-29T13:09:56.939Z,4.66
2018-09-29T13:10:57.884Z,4.6
2018-09-29T13:11:56.921Z,4.64
2018-09-29T13:12:56.948Z,4.69
2018-09-29T13:13:56.942Z,4.73
2018-09-29T13:14:56.860Z,4.85
2018-09-29T13:15:57.154Z,4.86
2018-09-29T13:16:57.847Z,4.78
2018-09-29T13:17:56.856Z,4.76
2018-09-29T13:18:56.809Z,4.71
2018-09-29T13:19:57.131Z,4.77
2018-09-29T13:20:57.234Z,4.66
2018-09-29T13:21:56.846Z,4.69
2018-09-29T13:23:17.500Z,4.67
2018-09-29T13:24:17.525Z,4.49